LiveATC.Net - Listen to live air traffic control over the Internet!


ICAO: KDSM  IATA: DSM   Airport: Des Moines International Airport
City: Des Moines   State/Province: Iowa
Country: United States   Continent: North America
KDSM METAR Weather: KDSM 201054Z 34011KT 10SM CLR M20/M24 A3066 RMK AO2 SLP409 T12001244 $
KDSM Flight Activity (FlightAware)
KDSM Airport Info   (iFlightPlanner)
KDSM VFR Sectional Chart   (iFlightPlanner) 
KDSM IFR Low Altitude Chart   (iFlightPlanner) 
KDSM IFR High Altitude Chart   (iFlightPlanner) 

KDSM Twr/App
Feed Status: DOWN
Last heard on: 2022-01-16 14:39:22 (3 days 21 hours 6 minutes ago)
Archive Access: KDSM Twr/App
FacilityFrequency
Des Moines Approach/Departure118.600
Des Moines Approach/Departure123.900
Des Moines Approach/Departure135.200
Des Moines Tower118.300

NOTICE

Unauthorized use prohibited. See LiveATC.net Terms of Service


Airport/ARTCC Code
Frequency Search
(e.g., 124.400, 128.75)
Site-wide search
 


Browse Feeds
Top 50 Feeds
HF Oceanic Feeds
Coverage Map
Bad Weather Areas

LiveATC FAQ
Offer LiveATC feed
Contact LiveATC.net
Press Inquiries

LiveATC on iPhone
LiveATC on Android

LiveATC Mobile
(Mobile browser)

ATC Audio Archives
Interesting Recordings

LiveATC Forums


Home Page
About LiveATC.net
Make a Donation
Terms of Use
Privacy Policy

Canadian Air Freqs

AIRMETs/SIGMETs

FAA Airport Status
NAS Status
Arrival Demand


Server Software By:
Icecast.org
Liquidsoap